Terminal Aerodrome Forecast
Issued by NWS Portland, OR

Home | Current Version | Previous Version | Text Only | Print | Product List | Glossary On
Versions: 1 2 3 4 5 6 7 8 9 10 11 12 13 14 15 16 17 18 19 20 21 22 23 24 25 26 27 28 29 30 31 32 33 34 35 36 37 38 39
000
FTUS46 KPQR 252326
TAFEUG
TAF
KEUG 252326Z 2600/2624 19012KT P6SM FEW025 BKN040
     FM260500 19007KT 4SM BR SCT004 OVC020
     FM261100 17005KT 1/2SM FG OVC001
     FM261900 17006KT 4SM BR OVC005=

USA.gov is the U.S. government's official web portal to all federal, state and local government web resources and services.